Time;durP1;ratioP1;P1;durP2;ratioP2;P2;SDS_P1;SDS_P2;PMS_P1;PMS_P2;Temp;Humidity;BMP_temperature;BMP_pressure;BME280_temperature;BME280_humidity;BME280_pressure;Samples;Min_cycle;Max_cycle;Signal;HPM_P1;HPM_P2
2021/12/15 00:13:08;;;;;;;;;;;;;;;8.53;100.00;102723.59;6048053;23;19932;-87
2021/12/15 01:00:11;;;;;;;;;;;;;;;;;;;;;
2021/12/15 01:19:51;;;;;;;;;;;;;;;8.46;100.00;102712.50;5955156;24;19954;-86
2021/12/15 01:22:31;;;;;;;;;;;;;;;8.51;100.00;102718.31;5982613;24;19926;-86
2021/12/15 01:25:08;;;;;;;;;;;;;;;8.49;100.00;102722.19;6212236;23;19924;-88
2021/12/15 01:27:35;;;;;;;;;;;;;;;8.50;100.00;102713.91;6220541;23;19930;-88
2021/12/15 01:30:02;;;;;;;;;;;;;;;8.50;100.00;102723.91;6186137;23;19939;-90
2021/12/15 01:32:30;;;;;;;;;;;;;;;8.51;100.00;102718.31;6220529;23;19920;-88
2021/12/15 01:34:57;;;;;;;;;;;;;;;8.44;100.00;102716.41;6219166;23;19974;-88
2021/12/15 01:37:26;;;;;;;;;;;;;;;8.49;100.00;102725.75;6183848;23;19975;-88
2021/12/15 01:39:55;;;;;;;;;;;;;;;8.46;100.00;102730.63;6184084;23;19920;-88
2021/12/15 01:42:22;;;;;;;;;;;;;;;8.45;100.00;102732.50;6220392;23;19974;-88
2021/12/15 01:47:33;;;;;;;;;;;;;;;8.46;100.00;102731.50;6182511;23;19924;-88
2021/12/15 01:50:00;;;;;;;;;;;;;;;8.43;100.00;102736.38;6210482;23;19920;-88
2021/12/15 01:52:29;;;;;;;;;;;;;;;8.48;100.00;102742.19;6219561;23;19920;-87
2021/12/15 01:54:58;;;;;;;;;;;;;;;8.45;100.00;102734.34;6184692;23;20007;-88
2021/12/15 01:57:26;;;;;;;;;;;;;;;8.48;100.00;102736.75;6219906;23;19964;-87
2021/12/15 01:59:54;;;;;;;;;;;;;;;8.49;100.00;102735.75;6183919;23;19926;-88
2021/12/15 02:02:21;;;;;;;;;;;;;;;8.47;100.00;102735.91;6181325;23;19935;-88
2021/12/15 02:04:48;;;;;;;;;;;;;;;8.45;100.00;102732.50;6205795;23;19924;-88
2021/12/15 02:07:17;;;;;;;;;;;;;;;8.46;100.00;102745.06;6182724;23;20309;-86
2021/12/15 02:12:37;;;;;;;;;;;;;;;8.46;100.00;102745.06;6177639;23;19931;-88
2021/12/15 02:15:06;;;;;;;;;;;;;;;8.47;100.00;102745.91;6184887;23;20234;-88
2021/12/15 02:17:33;;;;;;;;;;;;;;;8.41;100.00;102749.22;6181957;23;19920;-88
2021/12/15 02:19:59;;;;;;;;;;;;;;;8.43;100.00;102749.94;6184554;23;19927;-87
2021/12/15 02:22:30;;;;;;;;;;;;;;;8.46;100.00;102741.47;6183559;23;19924;-89
2021/12/15 02:24:56;;;;;;;;;;;;;;;8.44;100.00;102746.22;6187325;23;19927;-88
2021/12/15 02:27:31;;;;;;;;;;;;;;;8.47;100.00;102752.19;6222398;23;20345;-88
2021/12/15 02:30:04;;;;;;;;;;;;;;;8.44;100.00;102747.06;6210458;23;19930;-88
2021/12/15 02:32:43;;;;;;;;;;;;;;;8.45;100.00;102750.63;6185315;23;19920;-88
2021/12/15 02:37:55;;;;;;;;;;;;;;;8.48;100.00;102758.44;6184776;23;19920;-88
2021/12/15 02:40:22;;;;;;;;;;;;;;;8.48;100.00;102759.34;6222754;23;19927;-88
2021/12/15 02:42:50;;;;;;;;;;;;;;;8.45;100.00;102746.06;6183239;23;19924;-89
2021/12/15 02:45:18;;;;;;;;;;;;;;;8.44;100.00;102751.66;6221697;23;20245;-87
2021/12/15 02:47:47;;;;;;;;;;;;;;;8.41;100.00;102750.06;6220279;23;19947;-88
2021/12/15 02:50:15;;;;;;;;;;;;;;;8.38;100.00;102750.34;6185535;23;19919;-88
2021/12/15 02:52:42;;;;;;;;;;;;;;;8.38;100.00;102751.22;6184056;23;20006;-87
2021/12/15 02:55:22;;;;;;;;;;;;;;;8.44;100.00;102752.50;6220053;23;19924;-87
2021/12/15 02:57:50;;;;;;;;;;;;;;;8.45;100.00;102750.63;6222118;23;20014;-88
2021/12/15 03:00:20;;;;;;;;;;;;;;;8.45;100.00;102745.22;6221425;23;19924;-87
2021/12/15 03:05:38;;;;;;;;;;;;;;;8.43;100.00;102744.50;6220981;23;19923;-87
2021/12/15 03:08:09;;;;;;;;;;;;;;;8.40;100.00;102742.09;6220862;23;20342;-88
2021/12/15 03:16:09;;;;;;;;;;;;;;;8.38;100.00;102747.66;6185063;23;19924;-88
2021/12/15 03:18:36;;;;;;;;;;;;;;;8.43;100.00;102744.50;6222381;23;19970;-88
2021/12/15 03:21:05;;;;;;;;;;;;;;;8.43;100.00;102744.50;6222408;23;19924;-88
2021/12/15 03:23:36;;;;;;;;;;;;;;;8.37;100.00;102746.81;6220050;23;19920;-89
2021/12/15 03:26:04;;;;;;;;;;;;;;;8.38;100.00;102748.50;6183839;23;19946;-87
2021/12/15 03:34:26;;;;;;;;;;;;;;;8.44;100.00;102746.22;6220503;23;19920;-88
2021/12/15 03:37:20;;;;;;;;;;;;;;;8.43;100.00;102739.09;6209577;23;19920;-88
2021/12/15 03:39:46;;;;;;;;;;;;;;;8.40;100.00;102748.34;6220788;23;19924;-88
2021/12/15 03:42:17;;;;;;;;;;;;;;;8.38;100.00;102747.66;6185115;23;19920;-88
2021/12/15 03:44:45;;;;;;;;;;;;;;;8.42;100.00;102754.50;6184972;23;19920;-87
2021/12/15 03:47:13;;;;;;;;;;;;;;;8.43;100.00;102750.78;6183045;23;19940;-88
2021/12/15 03:49:41;;;;;;;;;;;;;;;8.37;100.00;102763.06;6185111;23;19920;-88
2021/12/15 03:52:10;;;;;;;;;;;;;;;8.37;100.00;102760.38;6221810;23;19949;-87
2021/12/15 03:54:37;;;;;;;;;;;;;;;8.39;100.00;102762.91;6221077;23;19923;-88
2021/12/15 03:57:04;;;;;;;;;;;;;;;8.44;100.00;102759.78;6185458;23;19963;-88
2021/12/15 03:59:34;;;;;;;;;;;;;;;8.44;100.00;102762.50;6211116;23;19999;-88
2021/12/15 04:02:00;;;;;;;;;;;;;;;8.45;100.00;102758.78;6221127;23;19982;-88
2021/12/15 04:04:27;;;;;;;;;;;;;;;8.45;100.00;102764.19;6219751;23;19931;-88
2021/12/15 04:06:53;;;;;;;;;;;;;;;8.46;100.00;102771.31;6219821;23;19927;-89
2021/12/15 04:09:20;;;;;;;;;;;;;;;8.42;100.00;102761.81;6184520;23;20019;-89
2021/12/15 04:11:47;;;;;;;;;;;;;;;8.42;100.00;102753.66;6184550;23;20560;-88
2021/12/15 04:14:19;;;;;;;;;;;;;;;8.38;100.00;102761.22;6184490;23;19998;-88
2021/12/15 04:16:59;;;;;;;;;;;;;;;8.42;100.00;102759.09;6221470;23;19924;-88
2021/12/15 04:19:28;;;;;;;;;;;;;;;8.44;100.00;102765.22;6184913;23;19963;-87
2021/12/15 04:21:56;;;;;;;;;;;;;;;8.41;100.00;102769.06;6183815;23;19947;-87
2021/12/15 04:24:24;;;;;;;;;;;;;;;8.37;100.00;102763.06;6220920;23;20492;-88
2021/12/15 04:26:51;;;;;;;;;;;;;;;8.42;100.00;102769.94;6221730;23;19974;-88
2021/12/15 04:29:18;;;;;;;;;;;;;;;8.42;100.00;102765.34;6184080;23;19952;-88
2021/12/15 04:31:46;;;;;;;;;;;;;;;8.38;100.00;102774.78;6184600;23;19920;-88
2021/12/15 04:34:15;;;;;;;;;;;;;;;8.44;100.00;102768.78;6183247;23;20319;-88
2021/12/15 04:36:42;;;;;;;;;;;;;;;8.40;100.00;102769.22;6220715;23;19926;-87
2021/12/15 04:39:10;;;;;;;;;;;;;;;8.44;100.00;102778.78;6221483;23;19930;-87
2021/12/15 04:41:37;;;;;;;;;;;;;;;8.41;100.00;102779.06;6222110;23;19930;-88
2021/12/15 04:44:09;;;;;;;;;;;;;;;8.44;100.00;102773.34;6219603;23;19923;-88
2021/12/15 04:46:37;;;;;;;;;;;;;;;8.37;100.00;102771.22;6184979;23;19947;-88
2021/12/15 04:49:05;;;;;;;;;;;;;;;8.40;100.00;102778.19;6221142;23;19920;-89
2021/12/15 04:51:34;;;;;;;;;;;;;;;8.43;100.00;102779.78;6221170;23;19920;-89
2021/12/15 04:54:00;;;;;;;;;;;;;;;8.38;100.00;102781.03;6220418;23;19930;-88
2021/12/15 04:56:28;;;;;;;;;;;;;;;8.41;100.00;102787.19;6184986;23;20341;-87
2021/12/15 04:58:55;;;;;;;;;;;;;;;8.44;100.00;102784.22;6220666;23;19951;-89
2021/12/15 05:01:21;;;;;;;;;;;;;;;8.44;100.00;102795.06;6221440;23;20030;-88
2021/12/15 05:03:48;;;;;;;;;;;;;;;8.41;100.00;102795.34;6184091;23;19920;-87
2021/12/15 05:06:15;;;;;;;;;;;;;;;8.47;100.00;102789.31;6220189;23;20096;-88
2021/12/15 05:08:43;;;;;;;;;;;;;;;8.41;100.00;102785.34;6220861;23;19920;-88
2021/12/15 05:11:11;;;;;;;;;;;;;;;8.45;100.00;102791.31;6185478;23;19995;-88
2021/12/15 05:13:38;;;;;;;;;;;;;;;8.48;100.00;102791.00;6220081;23;20401;-88
2021/12/15 05:16:05;;;;;;;;;;;;;;;8.45;100.00;102786.75;6184000;23;19926;-89
2021/12/15 05:18:31;;;;;;;;;;;;;;;8.45;100.00;102797.59;6209066;23;20008;-89
2021/12/15 05:21:00;;;;;;;;;;;;;;;8.46;100.00;102793.91;6220589;23;19924;-88
2021/12/15 05:23:30;;;;;;;;;;;;;;;8.48;100.00;102788.28;6182989;23;19990;-88
2021/12/15 05:26:00;;;;;;;;;;;;;;;8.43;100.00;102794.19;6184261;23;20262;-88
2021/12/15 05:28:26;;;;;;;;;;;;;;;8.41;100.00;102795.34;6183044;23;19920;-88
2021/12/15 05:30:53;;;;;;;;;;;;;;;8.46;100.00;102803.88;6220334;23;19930;-88
2021/12/15 05:33:19;;;;;;;;;;;;;;;8.50;100.00;102799.84;6220763;23;19958;-88
2021/12/15 05:35:46;;;;;;;;;;;;;;;8.48;100.00;102802.75;6220003;23;19924;-88
2021/12/15 05:38:13;;;;;;;;;;;;;;;8.45;100.00;102797.59;6208970;23;19920;-86
2021/12/15 05:40:39;;;;;;;;;;;;;;;8.49;100.00;102798.16;6183933;23;20706;-87
2021/12/15 05:43:10;;;;;;;;;;;;;;;8.48;100.00;102807.28;6219980;23;19955;-87
2021/12/15 05:45:38;;;;;;;;;;;;;;;8.49;100.00;102798.16;6220825;23;19920;-88
2021/12/15 05:48:06;;;;;;;;;;;;;;;8.47;100.00;102794.75;6184049;23;19926;-88
2021/12/15 05:50:33;;;;;;;;;;;;;;;8.49;100.00;102804.44;6220918;23;19954;-86
2021/12/15 05:53:01;;;;;;;;;;;;;;;8.44;100.00;102801.31;6220948;23;19990;-90
2021/12/15 05:55:28;;;;;;;;;;;;;;;8.48;100.00;102805.44;6228076;23;19927;-87
2021/12/15 05:57:55;;;;;;;;;;;;;;;8.45;100.00;102810.31;6195922;23;20018;-87
2021/12/15 06:00:27;;;;;;;;;;;;;;;8.51;100.00;102807.00;6223553;23;19967;-88
2021/12/15 06:02:54;;;;;;;;;;;;;;;8.52;100.00;102808.69;6185809;23;19986;-88
2021/12/15 06:05:20;;;;;;;;;;;;;;;8.47;100.00;102808.31;6185614;23;20000;-87
2021/12/15 06:07:48;;;;;;;;;;;;;;;8.48;100.00;102816.31;6221265;23;19920;-88
2021/12/15 06:10:18;;;;;;;;;;;;;;;8.48;100.00;102812.72;6224126;23;19920;-88
2021/12/15 06:12:47;;;;;;;;;;;;;;;8.51;100.00;102815.13;6186605;23;19923;-87
2021/12/15 06:15:14;;;;;;;;;;;;;;;8.52;100.00;102814.13;6222570;23;20338;-87
2021/12/15 06:17:42;;;;;;;;;;;;;;;8.53;100.00;102815.84;6211474;23;19923;-88
2021/12/15 06:20:09;;;;;;;;;;;;;;;8.54;100.00;102818.41;6186133;23;19920;-87
2021/12/15 06:22:37;;;;;;;;;;;;;;;8.52;100.00;102808.69;6221743;23;19923;-87
2021/12/15 06:25:04;;;;;;;;;;;;;;;8.52;100.00;102815.00;6221959;23;19923;-87
2021/12/15 06:27:34;;;;;;;;;;;;;;;8.52;100.00;102809.56;6222929;23;19978;-87
2021/12/15 06:30:01;;;;;;;;;;;;;;;8.55;100.00;102809.25;6223722;23;19920;-88
2021/12/15 06:32:29;;;;;;;;;;;;;;;8.48;100.00;102807.28;6222586;23;19924;-88
2021/12/15 06:35:06;;;;;;;;;;;;;;;8.52;100.00;102815.00;6222315;23;20235;-88
2021/12/15 06:37:35;;;;;;;;;;;;;;;8.51;100.00;102813.28;6222279;23;19954;-87
2021/12/15 06:40:07;;;;;;;;;;;;;;;8.48;100.00;102812.72;6185250;23;20406;-88
2021/12/15 06:42:38;;;;;;;;;;;;;;;8.54;100.00;102806.69;6223085;23;20249;-88
2021/12/15 06:45:06;;;;;;;;;;;;;;;8.50;100.00;102817.00;6186644;23;20328;-91
2021/12/15 06:58:39;;;;;;;;;;;;;;;8.55;100.00;102832.84;6222793;23;19923;-87
2021/12/15 07:01:06;;;;;;;;;;;;;;;8.57;100.00;102838.97;6212242;23;19920;-86
2021/12/15 07:03:33;;;;;;;;;;;;;;;8.61;100.00;102839.50;6184440;23;19962;-87
2021/12/15 07:06:01;;;;;;;;;;;;;;;8.55;100.00;102849.97;6185447;23;19919;-87
2021/12/15 07:08:28;;;;;;;;;;;;;;;8.56;100.00;102856.22;6220694;23;19927;-88
2021/12/15 07:10:56;;;;;;;;;;;;;;;8.55;100.00;102854.53;6186294;23;19924;-88
2021/12/15 07:13:25;;;;;;;;;;;;;;;8.57;100.00;102855.25;6222201;23;19920;-87
2021/12/15 07:15:59;;;;;;;;;;;;;;;8.61;100.00;102855.78;6221991;23;19927;-86
2021/12/15 07:18:38;;;;;;;;;;;;;;;8.57;100.00;102849.81;6186215;23;19934;-86
2021/12/15 07:21:09;;;;;;;;;;;;;;;8.60;100.00;102849.50;6185225;23;20353;-88
2021/12/15 07:23:36;;;;;;;;;;;;;;;8.59;100.00;102847.81;6209792;23;20346;-88
2021/12/15 07:26:05;;;;;;;;;;;;;;;8.60;100.00;102849.50;6185680;23;19978;-88
2021/12/15 07:28:31;;;;;;;;;;;;;;;8.53;100.00;102846.53;6186025;23;19994;-89
2021/12/15 07:30:58;;;;;;;;;;;;;;;8.60;100.00;102846.78;6221484;23;20506;-87
2021/12/15 07:33:25;;;;;;;;;;;;;;;8.63;100.00;102851.06;6186364;23;20003;-87
2021/12/15 07:35:52;;;;;;;;;;;;;;;8.56;100.00;102853.50;6221181;23;19947;-87
2021/12/15 07:38:20;;;;;;;;;;;;;;;8.62;100.00;102852.91;6185235;23;19928;-87
2021/12/15 07:40:46;;;;;;;;;;;;;;;8.60;100.00;102860.34;6185077;23;19935;-88
2021/12/15 07:43:24;;;;;;;;;;;;;;;8.62;100.00;102863.78;6185605;23;19924;-88
2021/12/15 07:45:53;;;;;;;;;;;;;;;8.65;100.00;102860.78;6221056;23;19920;-88
2021/12/15 07:48:21;;;;;;;;;;;;;;;8.65;100.00;102868.91;6222556;23;20002;-87
2021/12/15 07:50:49;;;;;;;;;;;;;;;8.70;100.00;102865.75;6185165;23;19920;-87
2021/12/15 07:53:18;;;;;;;;;;;;;;;8.60;100.00;102870.34;6220838;23;19943;-88
2021/12/15 07:55:46;;;;;;;;;;;;;;;8.64;100.00;102867.19;6222826;23;19923;-87
2021/12/15 07:58:13;;;;;;;;;;;;;;;8.62;100.00;102865.63;6210184;23;19938;-88
2021/12/15 08:00:41;;;;;;;;;;;;;;;8.64;100.00;102869.91;6221490;23;19924;-88
2021/12/15 08:03:08;;;;;;;;;;;;;;;8.64;100.00;102867.19;6185699;23;19931;-88
2021/12/15 08:05:35;;;;;;;;;;;;;;;8.60;100.00;102865.78;6184482;23;20001;-89
2021/12/15 08:08:02;;;;;;;;;;;;;;;8.61;100.00;102872.06;6221315;23;19923;-88
2021/12/15 08:10:29;;;;;;;;;;;;;;;8.63;100.00;102876.34;6220646;23;20384;-88
2021/12/15 08:12:57;;;;;;;;;;;;;;;8.64;100.00;102875.34;6220627;23;19920;-87
2021/12/15 08:15:24;;;;;;;;;;;;;;;8.68;100.00;102876.75;6185936;23;20019;-87
2021/12/15 08:17:52;;;;;;;;;;;;;;;8.69;100.00;102875.75;6182832;23;19924;-87
2021/12/15 08:20:20;;;;;;;;;;;;;;;8.73;100.00;102870.84;6220898;23;19923;-87
2021/12/15 08:22:47;;;;;;;;;;;;;;;8.69;100.00;102870.31;6221332;23;19920;-88
2021/12/15 08:25:16;;;;;;;;;;;;;;;8.69;100.00;102878.47;6219422;23;20342;-87
2021/12/15 08:27:43;;;;;;;;;;;;;;;8.71;100.00;102871.03;6208050;23;19920;-87
2021/12/15 08:30:13;;;;;;;;;;;;;;;8.70;100.00;102877.44;6185160;23;19942;-87
2021/12/15 08:32:40;;;;;;;;;;;;;;;8.72;100.00;102875.44;6220914;23;19924;-87
2021/12/15 08:35:09;;;;;;;;;;;;;;;8.71;100.00;102879.19;6208117;23;20329;-85
2021/12/15 08:37:37;;;;;;;;;;;;;;;8.68;100.00;102884.88;6221332;23;19924;-87
2021/12/15 08:40:04;;;;;;;;;;;;;;;8.70;100.00;102887.47;6221269;23;19920;-87
2021/12/15 08:42:32;;;;;;;;;;;;;;;8.75;100.00;102896.84;6235316;23;19979;-87
2021/12/15 08:44:59;;;;;;;;;;;;;;;8.74;100.00;102895.16;6229223;23;19994;-88
2021/12/15 08:47:28;;;;;;;;;;;;;;;8.75;100.00;102896.84;6223134;23;19926;-88
2021/12/15 08:53:23;;;;;;;;;;;;;;;8.77;100.00;102889.41;6220669;23;19923;-87
2021/12/15 08:55:50;;;;;;;;;;;;;;;8.78;100.00;102884.84;6184412;23;19927;-88
2021/12/15 08:58:20;;;;;;;;;;;;;;;8.80;100.00;102888.28;6185916;23;19920;-89
2021/12/15 09:00:47;;;;;;;;;;;;;;;8.78;100.00;102891.13;6221135;23;19927;-87
2021/12/15 09:03:16;;;;;;;;;;;;;;;8.77;100.00;102883.13;6184511;23;20218;-88
2021/12/15 09:05:43;;;;;;;;;;;;;;;8.76;100.00;102881.44;6186193;23;19924;-89
2021/12/15 09:08:10;;;;;;;;;;;;;;;8.78;100.00;102891.13;6184879;23;19924;-86
2021/12/15 09:10:40;;;;;;;;;;;;;;;8.82;100.00;102897.13;6182097;23;19978;-88
2021/12/15 09:13:07;;;;;;;;;;;;;;;8.83;100.00;102887.94;6183800;23;20011;-87
2021/12/15 09:15:34;;;;;;;;;;;;;;;8.81;100.00;102895.38;6184828;23;19927;-89
2021/12/15 09:21:37;;;;;;;;;;;;;;;8.86;100.00;102903.06;6221195;23;19927;-89
2021/12/15 09:24:05;;;;;;;;;;;;;;;8.91;100.00;102903.50;6219911;23;19942;-87
2021/12/15 09:26:33;;;;;;;;;;;;;;;8.88;100.00;102909.22;6210243;23;19920;-87
2021/12/15 09:29:00;;;;;;;;;;;;;;;8.91;100.00;102914.34;6221278;23;19935;-89
2021/12/15 09:31:27;;;;;;;;;;;;;;;8.89;100.00;102910.94;6210833;23;19974;-89
2021/12/15 09:33:57;;;;;;;;;;;;;;;8.91;100.00;102922.50;6183875;23;20253;-90
2021/12/15 09:36:25;;;;;;;;;;;;;;;8.93;100.00;102920.50;6221873;23;19993;-87
2021/12/15 09:38:54;;;;;;;;;;;;;;;8.91;100.00;102917.06;6184449;23;20362;-87
2021/12/15 09:41:21;;;;;;;;;;;;;;;8.95;100.00;102918.47;6182657;23;20363;-86
2021/12/15 09:43:51;;;;;;;;;;;;;;;8.91;100.00;102917.06;6220407;23;19920;-88
2021/12/15 09:46:29;;;;;;;;;;;;;;;8.93;100.00;102917.78;6184983;23;19924;-87
2021/12/15 09:57:23;;;;;;;;;;;;;;;9.02;100.00;102927.72;6221859;23;19924;-87
2021/12/15 10:02:49;;;;;;;;;;;;;;;9.05;100.00;102930.13;6181920;23;20326;-87
2021/12/15 10:11:40;;;;;;;;;;;;;;;;;;;;;
2021/12/15 10:20:00;;;;;;;;;;;;;;;9.16;100.00;102935.38;6209132;23;19924;-87
2021/12/15 10:22:36;;;;;;;;;;;;;;;9.19;100.00;102932.34;6184172;23;19924;-87
2021/12/15 10:25:15;;;;;;;;;;;;;;;9.19;100.00;102935.06;6221845;23;19958;-88
2021/12/15 10:27:57;;;;;;;;;;;;;;;9.19;100.00;102923.34;6183055;23;19920;-87
2021/12/15 10:30:42;;;;;;;;;;;;;;;9.17;100.00;102928.91;6188394;23;19939;-87
2021/12/15 10:33:21;;;;;;;;;;;;;;;;;;;;;
2021/12/15 10:35:57;;;;;;;;;;;;;;;9.25;100.00;102930.03;6221550;23;19924;-87
2021/12/15 10:38:31;;;;;;;;;;;;;;;9.27;100.00;102928.03;6221911;23;19926;-88
2021/12/15 10:41:10;;;;;;;;;;;;;;;9.29;100.00;102928.72;6219660;23;19932;-87
2021/12/15 10:43:45;;;;;;;;;;;;;;;9.33;100.00;102927.41;6209159;23;19923;-87
2021/12/15 10:46:27;;;;;;;;;;;;;;;9.30;100.00;102927.69;6222985;23;19931;-87
2021/12/15 10:49:00;;;;;;;;;;;;;;;9.31;100.00;102926.72;6210461;23;19924;-89
2021/12/15 10:51:39;;;;;;;;;;;;;;;9.34;100.00;102929.09;6222619;23;19930;-87
2021/12/15 10:54:08;;;;;;;;;;;;;;;9.35;100.00;102933.50;6222385;23;19924;-89
2021/12/15 10:56:37;;;;;;;;;;;;;;;9.37;100.00;102934.22;6185277;23;19972;-87
2021/12/15 10:59:08;;;;;;;;;;;;;;;9.40;100.00;102928.50;6186748;23;19931;-89
2021/12/15 11:01:42;;;;;;;;;;;;;;;9.40;100.00;102925.78;6223032;23;19924;-88
2021/12/15 11:04:36;;;;;;;;;;;;;;;9.38;100.00;102933.22;6221820;23;19920;-88
2021/12/15 11:07:05;;;;;;;;;;;;;;;9.40;100.00;102917.63;6222142;23;19928;-87
2021/12/15 11:09:33;;;;;;;;;;;;;;;9.39;100.00;102926.78;6185364;23;19990;-86
2021/12/15 11:12:02;;;;;;;;;;;;;;;9.36;100.00;102925.22;6183322;23;19924;-88
2021/12/15 11:14:35;;;;;;;;;;;;;;;9.39;100.00;102932.22;6186077;23;19920;-87
2021/12/15 11:17:04;;;;;;;;;;;;;;;9.38;100.00;102925.94;6223019;23;19920;-88
2021/12/15 11:19:42;;;;;;;;;;;;;;;9.34;100.00;102940.81;6221075;23;19920;-88
2021/12/15 11:22:32;;;;;;;;;;;;;;;9.33;100.00;102944.56;6221869;23;20361;-89
2021/12/15 11:25:01;;;;;;;;;;;;;;;9.37;100.00;102936.94;6185728;23;20378;-88
2021/12/15 11:27:28;;;;;;;;;;;;;;;9.40;100.00;102939.38;6224753;23;19926;-87
2021/12/15 11:29:55;;;;;;;;;;;;;;;9.41;100.00;102929.34;6232410;23;20432;-87
2021/12/15 11:32:41;;;;;;;;;;;;;;;9.39;100.00;102930.38;6190905;23;19958;-88
2021/12/15 11:35:11;;;;;;;;;;;;;;;9.38;100.00;102925.06;6213434;23;20449;-87
2021/12/15 11:37:50;;;;;;;;;;;;;;;9.43;100.00;102921.91;6222710;23;20002;-87
2021/12/15 11:40:17;;;;;;;;;;;;;;;9.45;100.00;102923.44;6222270;23;19920;-87
2021/12/15 11:42:44;;;;;;;;;;;;;;;9.44;100.00;102901.88;6218499;23;19919;-86
2021/12/15 11:45:13;;;;;;;;;;;;;;;9.47;100.00;102918.72;6223010;23;20622;-86
2021/12/15 11:47:41;;;;;;;;;;;;;;;9.52;100.00;102913.69;6185445;23;19928;-86
2021/12/15 11:50:10;;;;;;;;;;;;;;;9.56;100.00;102914.22;6223008;23;19924;-85
2021/12/15 11:52:38;;;;;;;;;;;;;;;9.52;100.00;102905.53;6185475;23;19920;-86
2021/12/15 11:55:07;;;;;;;;;;;;;;;9.59;100.00;102913.91;6221927;23;19920;-86
2021/12/15 11:57:33;;;;;;;;;;;;;;;9.54;100.00;102914.38;6220437;23;19974;-85
2021/12/15 12:00:05;;;;;;;;;;;;;;;9.54;100.00;102908.06;6185901;23;19928;-86
2021/12/15 12:02:47;;;;;;;;;;;;;;;9.52;100.00;102900.09;6211135;23;19970;-86
2021/12/15 12:05:19;;;;;;;;;;;;;;;9.59;100.00;102901.16;6186285;23;20543;-85
2021/12/15 12:07:53;;;;;;;;;;;;;;;9.58;100.00;102899.47;6182902;23;20377;-86
2021/12/15 12:10:23;;;;;;;;;;;;;;;9.62;100.00;102904.59;6222093;23;20254;-85
2021/12/15 12:12:53;;;;;;;;;;;;;;;9.65;100.00;102899.72;6220905;23;19923;-86
2021/12/15 12:15:21;;;;;;;;;;;;;;;9.66;100.00;102906.84;6186814;23;20330;-86
2021/12/15 12:17:49;;;;;;;;;;;;;;;9.68;100.00;102903.97;6220691;23;19923;-85
2021/12/15 12:20:18;;;;;;;;;;;;;;;9.66;100.00;102903.28;6221103;23;19924;-86
2021/12/15 12:22:47;;;;;;;;;;;;;;;9.70;100.00;102902.78;6220117;23;20570;-85
2021/12/15 12:25:15;;;;;;;;;;;;;;;9.68;100.00;102901.25;6184770;23;19995;-85
2021/12/15 12:27:44;;;;;;;;;;;;;;;9.69;100.00;102897.50;6219667;23;19950;-85
2021/12/15 12:30:12;;;;;;;;;;;;;;;9.63;100.00;102889.97;6184615;23;19931;-86
2021/12/15 12:32:39;;;;;;;;;;;;;;;9.65;100.00;102888.84;6219212;23;19924;-86
2021/12/15 12:35:09;;;;;;;;;;;;;;;9.64;100.00;102886.25;6185004;23;20007;-86
2021/12/15 12:37:38;;;;;;;;;;;;;;;9.69;100.00;102875.75;6220997;23;19930;-85
2021/12/15 12:40:17;;;;;;;;;;;;;;;9.67;100.00;102861.47;6183951;23;19923;-87
2021/12/15 12:42:43;;;;;;;;;;;;;;;9.67;100.00;102865.06;6217736;23;19974;-86
2021/12/15 12:45:13;;;;;;;;;;;;;;;9.67;100.00;102858.75;6221508;23;19999;-88
2021/12/15 12:47:47;;;;;;;;;;;;;;;9.65;100.00;102860.78;6221596;23;19943;-86
2021/12/15 12:50:50;;;;;;;;;;;;;;;9.63;100.00;102876.38;6221878;23;19920;-86
2021/12/15 12:59:24;;;;;;;;;;;;;;;9.67;100.00;102875.94;6185335;23;19974;-87
2021/12/15 13:01:51;;;;;;;;;;;;;;;9.69;100.00;102886.63;6220467;23;19923;-87
2021/12/15 13:04:17;;;;;;;;;;;;;;;9.68;100.00;102882.22;6221023;23;19924;-87
2021/12/15 13:06:44;;;;;;;;;;;;;;;9.71;100.00;102876.47;6184740;23;19920;-87
2021/12/15 13:09:15;;;;;;;;;;;;;;;9.66;100.00;102867.94;6183787;23;19970;-87
2021/12/15 13:11:48;;;;;;;;;;;;;;;9.64;100.00;102864.53;6220322;23;20338;-86
2021/12/15 13:14:17;;;;;;;;;;;;;;;9.62;100.00;102867.38;6220187;23;19920;-87
2021/12/15 13:16:47;;;;;;;;;;;;;;;9.66;100.00;102868.78;6184594;23;19998;-86
2021/12/15 13:19:18;;;;;;;;;;;;;;;9.65;100.00;102871.66;6221315;23;19927;-86
2021/12/15 13:21:59;;;;;;;;;;;;;;;9.61;100.00;102864.84;6221371;23;19919;-87
2021/12/15 13:30:28;;;;;;;;;;;;;;;9.64;100.00;102875.38;6184818;23;20338;-87
2021/12/15 13:33:02;;;;;;;;;;;;;;;9.58;100.00;102872.31;6182528;23;19920;-86
2021/12/15 13:35:35;;;;;;;;;;;;;;;9.59;100.00;102873.16;6184361;23;19998;-87
2021/12/15 13:38:02;;;;;;;;;;;;;;;9.50;100.00;102869.50;6183464;23;19927;-87
2021/12/15 13:40:47;;;;;;;;;;;;;;;9.58;100.00;102879.56;6184481;23;19924;-86
2021/12/15 13:43:29;;;;;;;;;;;;;;;9.56;100.00;102871.59;6208470;23;20354;-87
2021/12/15 13:52:03;;;;;;;;;;;;;;;9.48;100.00;102876.97;6182672;23;19920;-88
2021/12/15 13:54:49;;;;;;;;;;;;;;;9.54;100.00;102878.19;6211435;23;19924;-86
2021/12/15 13:57:18;;;;;;;;;;;;;;;9.50;100.00;102872.22;6210501;23;19926;-86
2021/12/15 13:59:45;;;;;;;;;;;;;;;9.48;100.00;102874.25;6219143;23;19927;-86
2021/12/15 14:02:16;;;;;;;;;;;;;;;9.45;100.00;102870.97;6183795;23;20353;-86
2021/12/15 14:04:47;;;;;;;;;;;;;;;9.46;100.00;102867.25;6184162;23;20007;-86
2021/12/15 14:07:32;;;;;;;;;;;;;;;9.48;100.00;102871.53;6220656;23;20055;-87
2021/12/15 14:10:02;;;;;;;;;;;;;;;9.41;100.00;102875.84;6218950;23;20002;-87
2021/12/15 14:12:57;;;;;;;;;;;;;;;9.39;100.00;102881.47;6218434;23;19970;-85
2021/12/15 14:15:41;;;;;;;;;;;;;;;9.35;100.00;102881.91;6224195;23;19930;-86
2021/12/15 14:18:14;;;;;;;;;;;;;;;9.37;100.00;102885.31;6225118;23;19966;-86
2021/12/15 14:20:43;;;;;;;;;;;;;;;9.35;100.00;102882.78;6186821;23;19930;-87
2021/12/15 14:23:11;;;;;;;;;;;;;;;9.27;100.00;102879.97;6222717;23;20254;-86
2021/12/15 14:28:24;;;;;;;;;;;;;;;9.31;100.00;102885.97;6214618;23;20499;-86
2021/12/15 14:30:59;;;;;;;;;;;;;;;9.35;100.00;102882.78;6185883;23;19920;-87
2021/12/15 14:33:41;;;;;;;;;;;;;;;9.36;100.00;102887.19;6222150;23;19946;-87
2021/12/15 14:36:11;;;;;;;;;;;;;;;9.33;100.00;102897.53;6186403;23;19990;-87
2021/12/15 14:38:54;;;;;;;;;;;;;;;9.33;100.00;102902.97;6223320;23;19943;-86
2021/12/15 14:41:29;;;;;;;;;;;;;;;9.29;100.00;102898.84;6222213;23;19947;-87
2021/12/15 14:44:06;;;;;;;;;;;;;;;9.29;100.00;102901.56;6221416;23;19919;-86
2021/12/15 14:46:41;;;;;;;;;;;;;;;9.33;100.00;102901.09;6223275;23;19928;-86
2021/12/15 14:49:11;;;;;;;;;;;;;;;9.29;100.00;102904.28;6210554;23;19951;-86
2021/12/15 14:51:40;;;;;;;;;;;;;;;9.24;100.00;102910.13;6184839;23;19959;-85
2021/12/15 14:54:06;;;;;;;;;;;;;;;9.25;100.00;102914.59;6185190;23;19930;-85
2021/12/15 14:56:49;;;;;;;;;;;;;;;9.25;100.00;102919.16;6221700;23;19959;-86
2021/12/15 14:59:20;;;;;;;;;;;;;;;9.16;100.00;102927.22;6222810;23;20235;-86
2021/12/15 15:01:48;;;;;;;;;;;;;;;9.24;100.00;102929.16;6221826;23;19955;-87
2021/12/15 15:04:16;;;;;;;;;;;;;;;9.26;100.00;102923.56;6221930;23;19920;-87
2021/12/15 15:06:48;;;;;;;;;;;;;;;9.25;100.00;102922.72;6209919;23;19962;-86
2021/12/15 15:09:18;;;;;;;;;;;;;;;9.23;100.00;102926.63;6221864;23;19927;-87
2021/12/15 15:11:56;;;;;;;;;;;;;;;9.23;100.00;102932.91;6184208;23;19920;-88
2021/12/15 15:14:34;;;;;;;;;;;;;;;9.23;100.00;102932.06;6221552;23;19920;-86
2021/12/15 15:17:02;;;;;;;;;;;;;;;9.13;100.00;102943.81;6185891;23;19978;-88
2021/12/15 15:19:49;;;;;;;;;;;;;;;;;;;;;
2021/12/15 15:22:22;;;;;;;;;;;;;;;9.24;100.00;102950.03;6214873;23;19946;-87
2021/12/15 15:28:23;;;;;;;;;;;;;;;9.22;100.00;102941.19;6205150;23;19989;-88
2021/12/15 15:30:51;;;;;;;;;;;;;;;9.21;100.00;102944.94;6217756;23;20032;-88
2021/12/15 15:33:19;;;;;;;;;;;;;;;9.28;100.00;102951.44;6219295;23;19947;-88
2021/12/15 15:36:07;;;;;;;;;;;;;;;9.16;100.00;102957.09;6207713;23;19924;-88
2021/12/15 15:41:46;;;;;;;;;;;;;;;9.19;100.00;102970.34;6177548;23;19924;-88